Archival Weather

Norman Y Mineta San Jose Intl

San Jose, California (KSJC)

Report from: Saturday, September 30, 2023 3:21 AM PDT
Current time: Thursday, July 18, 2024 8:31 PM PDT

Current weather – Weather history – Daily summaries
Weather forecast

Present weatherLight rain, mist
Temperature16.7°C (62.1°F)
Dew point14.4°C (57.9°F)
Winds Calm
Visibility2.5 mi. (4 km)
Clouds Ceiling: Broken clouds 1,500 ft. (457 m)
Overcast 2,300 ft. (701 m)
Altimeter29.79 in.Hg (1009 mB)
Precipitiation0.02 in. (1 mm)
Relative humidity86 %
Density altitude578 ft. (176 m)
Remarks Fully automated report
Automated weather observing station with precipitation discriminator
Flight conditions Instrument Meteorological Conditions
Raw dataKSJC 301021Z AUTO 00000KT 2 1/2SM -RA BR BKN015 OVC023 17/14 A2979 RMK AO2 P0002 T01670144
An error has occurred. This application may no longer respond until reloaded. Reload 🗙